This is the latest recevied weather packets stored in our database for station/object KG5TTF. If no packets are shown the sender has not sent any weather packets the latest 10 day(s).
| Time | Temp. | Humidity | Pressure | Rain* | Wind** | Luminosity | Snow |
|---|---|---|---|---|---|---|---|
| 1777922115 | 16.67° C | 42% | 1013.6 hPa | 0 mm | - | 242 W/m² | - |
| 1777921811 | 17.78° C | 27% | 1013.2 hPa | 0 mm | - | 134 W/m² | - |
| 1777921508 | 18.89° C | 22% | 1013.3 hPa | 0 mm | - | 115 W/m² | - |
| 1777921203 | 18.89° C | 20% | 1013.2 hPa | 0 mm | - | 86 W/m² | - |
| 1777920901 | 19.44° C | 20% | 1013.5 hPa | 0 mm | - | 97 W/m² | - |
| 1777920597 | 20° C | 20% | 1013.5 hPa | 0 mm | - | 130 W/m² | - |
| 1777920293 | 20.56° C | 19% | 1013.2 hPa | 0 mm | - | 194 W/m² | - |
| 1777919988 | 21.11° C | 18% | 1013.2 hPa | 0 mm | - | 451 W/m² | - |
| 1777919686 | 20.56° C | 20% | 1013.3 hPa | 0 mm | - | 1054 W/m² | - |
| 1777919384 | 20.56° C | 19% | 1013.3 hPa | 0 mm | - | 881 W/m² | - |
| 1777919080 | 21.11° C | 18% | 1013.6 hPa | 0 mm | - | 478 W/m² | - |
| 1777918778 | 20° C | 20% | 1013.6 hPa | 0 mm | - | 1011 W/m² | - |
| 1777918475 | 19.44° C | 21% | 1013.6 hPa | 0 mm | - | 427 W/m² | - |
| 1777918173 | 20° C | 20% | 1013.8 hPa | 0 mm | - | 1013 W/m² | - |
| 1777917872 | 20° C | 19% | 1013.8 hPa | 0 mm | - | 296 W/m² | - |
| 1777917570 | 20.56° C | 19% | 1013.8 hPa | 0 mm | - | 768 W/m² | - |
| 1777917266 | 20.56° C | 20% | 1014.1 hPa | 0 mm | - | 1046 W/m² | - |
| 1777916964 | 20.56° C | 19% | 1014.1 hPa | 0 mm | - | 1007 W/m² | - |
| 1777916662 | 20.56° C | 20% | 1014.3 hPa | 0 mm | - | 976 W/m² | - |
| 1777916359 | 20.56° C | 20% | 1014.3 hPa | 0 mm | - | 962 W/m² | - |
| 1777916055 | 20° C | 21% | 1014.4 hPa | 0 mm | - | 832 W/m² | - |
| 1777915753 | 20° C | 20% | 1014.4 hPa | 0 mm | - | 751 W/m² | - |
| 1777915448 | 19.44° C | 21% | 1014.7 hPa | 0 mm | - | 781 W/m² | - |
| 1777915145 | 18.89° C | 21% | 1014.6 hPa | 0 mm | - | 700 W/m² | - |
| 1777914842 | 19.44° C | 21% | 1014.6 hPa | 0 mm | - | 635 W/m² | - |
* Rain latest hour (hover to see other rain measurements)
** Current wind speed in m/s (hover to see current wind gust speed)